Time;durP1;ratioP1;P1;durP2;ratioP2;P2;SDS_P1;SDS_P2;PMS_P1;PMS_P2;Temp;Humidity;BMP_temperature;BMP_pressure;BME280_temperature;BME280_humidity;BME280_pressure;Samples;Min_cycle;Max_cycle;Signal;HPM_P1;HPM_P2
2024/03/13 00:01:40;;;;;;;;;;;;;;;9.05;69.48;94006.72;4183016;28;20277;-69
2024/03/13 00:03:42;;;;;;;;;;;;;;;9.04;69.91;94003.31;4211155;28;20410;-70
2024/03/13 00:05:44;;;;;;;;;;;;;;;9.06;69.84;94001.34;4179664;28;19956;-70
2024/03/13 00:07:46;;;;;;;;;;;;;;;9.04;68.94;94000.69;4205166;28;19998;-68
2024/03/13 00:09:50;;;;;;;;;;;;;;;9.01;69.90;94006.25;4194650;28;19943;-69
2024/03/13 00:11:52;;;;;;;;;;;;;;;8.99;69.35;94006.44;4211700;28;19931;-70
2024/03/13 00:13:55;;;;;;;;;;;;;;;8.89;70.16;94003.19;4199853;28;20515;-68
2024/03/13 00:15:59;;;;;;;;;;;;;;;8.92;69.77;94007.25;4199135;28;19943;-69
2024/03/13 00:18:01;;;;;;;;;;;;;;;9.03;69.73;94009.50;4203116;28;19920;-70
2024/03/13 00:20:04;;;;;;;;;;;;;;;8.99;69.72;94005.59;4207199;28;19964;-70
2024/03/13 00:22:05;;;;;;;;;;;;;;;8.99;69.53;94000.38;4194160;28;20264;-69
2024/03/13 00:24:07;;;;;;;;;;;;;;;8.99;69.87;94000.38;4209448;28;19973;-69
2024/03/13 00:26:10;;;;;;;;;;;;;;;9.00;69.26;94007.25;4210948;28;19981;-71
2024/03/13 00:28:12;;;;;;;;;;;;;;;8.95;69.38;94005.13;4216027;28;20014;-70
2024/03/13 00:30:15;;;;;;;;;;;;;;;8.86;70.15;94002.69;4207766;28;19965;-70
2024/03/13 00:32:20;;;;;;;;;;;;;;;8.95;69.84;93999.09;4200121;28;19920;-69
2024/03/13 00:34:21;;;;;;;;;;;;;;;8.94;69.56;94002.69;4208898;28;19938;-71
2024/03/13 00:36:23;;;;;;;;;;;;;;;8.91;69.77;94005.63;4206330;28;19920;-70
2024/03/13 00:38:25;;;;;;;;;;;;;;;8.87;69.52;94002.53;4198147;28;19921;-70
2024/03/13 00:40:28;;;;;;;;;;;;;;;8.94;70.15;94003.47;4202899;28;19946;-71
2024/03/13 00:42:30;;;;;;;;;;;;;;;8.93;70.02;93999.25;4207339;28;20094;-70
2024/03/13 00:44:32;;;;;;;;;;;;;;;8.82;69.85;94000.41;4198430;28;20290;-71
2024/03/13 00:46:34;;;;;;;;;;;;;;;8.85;70.04;93985.41;4204987;28;19969;-69
2024/03/13 00:48:35;;;;;;;;;;;;;;;8.85;69.81;93991.44;4212196;28;19920;-71
2024/03/13 00:50:37;;;;;;;;;;;;;;;8.93;70.00;93988.81;4201209;28;20003;-71
2024/03/13 00:52:43;;;;;;;;;;;;;;;8.89;69.79;93987.50;4207295;28;19931;-71
2024/03/13 00:54:45;;;;;;;;;;;;;;;8.87;69.44;93986.84;4202345;28;19931;-70
2024/03/13 00:56:48;;;;;;;;;;;;;;;8.94;69.14;93990.41;4186413;28;20350;-69
2024/03/13 00:58:50;;;;;;;;;;;;;;;8.95;69.70;93991.25;4210081;28;19974;-70
2024/03/13 01:00:52;;;;;;;;;;;;;;;8.95;69.76;93986.84;4209782;28;19973;-72
2024/03/13 01:02:54;;;;;;;;;;;;;;;8.95;69.70;93983.44;4211229;28;19967;-70
2024/03/13 01:04:56;;;;;;;;;;;;;;;9.00;69.08;93979.31;4198165;28;19920;-71
2024/03/13 01:06:57;;;;;;;;;;;;;;;8.95;70.13;93983.44;4206000;28;19920;-70
2024/03/13 01:08:59;;;;;;;;;;;;;;;8.85;70.01;93980.97;4203734;28;19928;-69
2024/03/13 01:11:01;;;;;;;;;;;;;;;8.92;69.83;93978.50;4189451;28;20106;-70
2024/03/13 01:13:03;;;;;;;;;;;;;;;8.88;70.61;93975.41;4197701;28;20007;-70
2024/03/13 01:15:05;;;;;;;;;;;;;;;8.88;69.83;93980.63;4201766;28;20359;-69
2024/03/13 01:17:07;;;;;;;;;;;;;;;8.90;69.54;93976.06;4204726;28;19924;-69
2024/03/13 01:19:09;;;;;;;;;;;;;;;8.91;69.24;93980.31;4210569;28;19920;-70
2024/03/13 01:21:11;;;;;;;;;;;;;;;8.87;69.30;93972.97;4211187;28;19999;-70
2024/03/13 01:23:13;;;;;;;;;;;;;;;8.87;69.42;93972.97;4197517;28;19927;-73
2024/03/13 01:25:15;;;;;;;;;;;;;;;8.82;69.98;93970.88;4205731;28;19920;-70
2024/03/13 01:27:18;;;;;;;;;;;;;;;8.81;69.85;93969.22;4196414;28;20333;-71
2024/03/13 01:29:20;;;;;;;;;;;;;;;8.87;69.90;93970.38;4209871;28;19931;-70
2024/03/13 01:31:26;;;;;;;;;;;;;;;8.96;69.38;93964.94;4209230;28;20011;-70
2024/03/13 01:33:28;;;;;;;;;;;;;;;8.96;69.22;93966.75;4195959;28;19931;-70
2024/03/13 01:35:31;;;;;;;;;;;;;;;8.98;69.54;93976.03;4204869;28;19920;-68
2024/03/13 01:39:52;;;;;;;;;;;;;;;9.06;69.04;93969.19;4197394;28;19978;-69
2024/03/13 01:56:04;;;;;;;;;;;;;;;9.00;70.12;93974.09;4188933;28;19920;-71
2024/03/13 02:02:28;;;;;;;;;;;;;;;9.00;69.79;93968.84;4189179;28;19921;-70
2024/03/13 02:04:30;;;;;;;;;;;;;;;8.95;69.92;93965.94;4212464;28;19920;-71
2024/03/13 02:06:32;;;;;;;;;;;;;;;8.97;70.30;93966.59;4210399;28;20336;-69
2024/03/13 02:08:34;;;;;;;;;;;;;;;8.95;69.94;93972.97;4185417;28;19920;-71
2024/03/13 02:10:35;;;;;;;;;;;;;;;8.92;70.08;93965.44;4211454;28;20021;-70
2024/03/13 02:12:37;;;;;;;;;;;;;;;8.91;70.44;93971.69;4210205;28;19931;-71
2024/03/13 02:14:39;;;;;;;;;;;;;;;8.96;69.92;93974.59;4197657;28;19926;-70
2024/03/13 02:16:41;;;;;;;;;;;;;;;8.94;69.59;93973.94;4199681;28;19931;-69
2024/03/13 02:18:43;;;;;;;;;;;;;;;8.91;69.60;93975.09;4183756;28;19938;-70
2024/03/13 02:20:46;;;;;;;;;;;;;;;8.92;70.37;93971.47;4193068;28;19920;-70
2024/03/13 02:22:49;;;;;;;;;;;;;;;8.94;69.84;93971.31;4200979;28;20342;-69
2024/03/13 02:24:52;;;;;;;;;;;;;;;8.91;69.75;93972.47;4186848;28;20351;-70
2024/03/13 02:26:54;;;;;;;;;;;;;;;8.98;69.37;93960.38;4169549;28;19921;-70
2024/03/13 02:28:55;;;;;;;;;;;;;;;8.99;69.55;93966.41;4208533;28;20021;-70
2024/03/13 02:30:57;;;;;;;;;;;;;;;8.98;69.65;93965.59;4204335;28;19920;-71
2024/03/13 02:32:59;;;;;;;;;;;;;;;8.99;69.80;93967.25;4200473;28;19920;-70
2024/03/13 02:35:03;;;;;;;;;;;;;;;9.00;69.69;93974.09;4206654;28;19980;-70
2024/03/13 02:37:05;;;;;;;;;;;;;;;8.99;70.27;93972.47;4208346;28;19935;-72
2024/03/13 02:39:08;;;;;;;;;;;;;;;8.97;69.21;93977.03;4204836;28;19950;-70
2024/03/13 02:41:10;;;;;;;;;;;;;;;9.01;69.64;93970.50;4196931;28;20012;-70
2024/03/13 02:43:12;;;;;;;;;;;;;;;9.02;69.09;93974.72;4196674;28;19939;-70
2024/03/13 02:45:13;;;;;;;;;;;;;;;9.01;69.54;93965.28;4185711;28;19982;-71
2024/03/13 02:47:17;;;;;;;;;;;;;;;9.07;68.89;93965.59;4209086;28;19926;-70
2024/03/13 02:49:19;;;;;;;;;;;;;;;9.02;68.72;93971.31;4189850;28;19920;-70
2024/03/13 02:51:21;;;;;;;;;;;;;;;9.04;69.56;93968.53;4209141;28;19966;-70
2024/03/13 02:53:23;;;;;;;;;;;;;;;9.00;69.22;93968.06;4203000;28;20011;-69
2024/03/13 02:55:24;;;;;;;;;;;;;;;8.95;69.41;93965.94;4180352;28;20323;-70
2024/03/13 02:57:26;;;;;;;;;;;;;;;8.86;68.94;93966.91;4208284;28;19993;-72
2024/03/13 02:59:28;;;;;;;;;;;;;;;8.89;69.93;93971.84;4207946;28;20345;-70
2024/03/13 03:01:30;;;;;;;;;;;;;;;8.93;69.50;93967.91;4200411;28;19920;-70
2024/03/13 03:03:32;;;;;;;;;;;;;;;8.84;69.82;93974.13;4199092;28;20468;-69
2024/03/13 03:05:34;;;;;;;;;;;;;;;8.88;69.51;93980.63;4186301;28;19994;-71
2024/03/13 03:07:36;;;;;;;;;;;;;;;8.91;69.68;93971.69;4205072;28;19920;-72
2024/03/13 03:09:39;;;;;;;;;;;;;;;8.91;69.89;93975.09;4206727;28;19920;-72
2024/03/13 03:11:44;;;;;;;;;;;;;;;8.88;69.88;93980.63;4206842;28;19920;-71
2024/03/13 03:13:46;;;;;;;;;;;;;;;8.88;70.52;93982.44;4169862;28;19921;-71
2024/03/13 03:15:48;;;;;;;;;;;;;;;8.88;70.21;93978.03;4188323;28;20015;-71
2024/03/13 03:17:53;;;;;;;;;;;;;;;8.77;70.98;93994.03;4208937;28;19920;-70
2024/03/13 03:19:56;;;;;;;;;;;;;;;8.66;71.83;93987.38;4206894;28;20027;-71
2024/03/13 03:21:57;;;;;;;;;;;;;;;8.54;72.39;93992.13;4208196;28;20011;-71
2024/03/13 03:24:00;;;;;;;;;;;;;;;8.54;72.14;93994.72;4201968;28;19920;-72
2024/03/13 03:26:02;;;;;;;;;;;;;;;8.55;72.26;93985.09;4197770;28;19931;-71
2024/03/13 03:28:03;;;;;;;;;;;;;;;8.46;72.92;93980.88;4195467;28;19924;-71
2024/03/13 03:30:06;;;;;;;;;;;;;;;8.50;72.22;93982.97;4195420;28;19935;-71
2024/03/13 03:32:08;;;;;;;;;;;;;;;8.49;72.11;93989.16;4190530;28;20241;-71
2024/03/13 03:34:09;;;;;;;;;;;;;;;8.46;72.34;93980.88;4183929;28;20394;-71
2024/03/13 03:36:13;;;;;;;;;;;;;;;8.38;72.44;93992.88;4197493;28;20015;-70
2024/03/13 03:38:15;;;;;;;;;;;;;;;8.41;72.35;93981.34;4201179;28;19920;-70
2024/03/13 03:40:17;;;;;;;;;;;;;;;8.40;72.75;93983.13;4204164;28;19931;-69
2024/03/13 03:42:19;;;;;;;;;;;;;;;8.39;72.13;93983.28;4199684;28;19971;-70
2024/03/13 03:44:20;;;;;;;;;;;;;;;8.32;72.89;94006.56;4196808;28;20023;-72
2024/03/13 03:46:22;;;;;;;;;;;;;;;8.33;72.77;93991.75;4208193;28;19928;-69
2024/03/13 03:48:24;;;;;;;;;;;;;;;8.18;72.19;93991.59;4202629;28;20011;-71
2024/03/13 03:50:26;;;;;;;;;;;;;;;8.18;72.27;93992.38;4202200;28;19920;-72
2024/03/13 03:52:27;;;;;;;;;;;;;;;8.10;73.00;93997.59;4207210;28;20014;-71
2024/03/13 03:54:29;;;;;;;;;;;;;;;8.09;72.61;93987.34;4196631;28;19963;-70
2024/03/13 03:56:32;;;;;;;;;;;;;;;8.05;72.97;93993.84;4209096;28;19943;-70
2024/03/13 03:58:34;;;;;;;;;;;;;;;8.03;73.34;93990.59;4191017;28;20311;-71
2024/03/13 04:00:35;;;;;;;;;;;;;;;8.11;72.86;93998.41;4181403;28;19944;-73
2024/03/13 04:02:39;;;;;;;;;;;;;;;8.17;73.04;93998.59;4190796;28;19936;-70
2024/03/13 04:04:41;;;;;;;;;;;;;;;8.26;72.94;93995.97;4190776;28;19931;-70
2024/03/13 04:06:43;;;;;;;;;;;;;;;8.29;72.84;94001.69;4212685;28;20010;-70
2024/03/13 04:08:45;;;;;;;;;;;;;;;8.29;72.10;94000.88;4206088;28;19996;-69
2024/03/13 04:10:47;;;;;;;;;;;;;;;8.30;71.87;93992.91;4210991;28;19940;-73
2024/03/13 04:12:49;;;;;;;;;;;;;;;8.40;71.91;94004.00;4212089;28;19919;-72
2024/03/13 04:14:52;;;;;;;;;;;;;;;8.45;71.92;93998.28;4191192;28;20036;-71
2024/03/13 04:16:54;;;;;;;;;;;;;;;8.39;71.48;93997.13;4188445;28;19920;-71
2024/03/13 04:18:56;;;;;;;;;;;;;;;8.29;72.24;94001.69;4207145;28;20370;-72
2024/03/13 04:20:59;;;;;;;;;;;;;;;8.31;71.40;94010.19;4190520;28;19924;-71
2024/03/13 04:23:00;;;;;;;;;;;;;;;8.04;72.64;94003.44;4211998;28;19995;-68
2024/03/13 04:25:04;;;;;;;;;;;;;;;8.05;72.46;94001.69;4205948;28;20330;-70
2024/03/13 04:27:05;;;;;;;;;;;;;;;8.04;73.07;94000.84;4200082;28;19955;-71
2024/03/13 04:29:07;;;;;;;;;;;;;;;7.97;73.45;94002.47;4210262;28;19924;-71
2024/03/13 04:31:13;;;;;;;;;;;;;;;8.06;73.14;94005.91;4211297;28;20404;-71
2024/03/13 04:33:16;;;;;;;;;;;;;;;7.95;72.84;94005.22;4200655;28;19928;-69
2024/03/13 04:35:19;;;;;;;;;;;;;;;7.93;72.64;94007.19;4197069;28;19926;-71
2024/03/13 04:37:23;;;;;;;;;;;;;;;7.93;72.81;94016.81;4201320;28;20334;-70
2024/03/13 04:39:25;;;;;;;;;;;;;;;7.90;73.63;94017.94;4204253;28;19924;-69
2024/03/13 04:41:27;;;;;;;;;;;;;;;7.89;72.88;94018.09;4203862;28;20263;-70
2024/03/13 04:43:31;;;;;;;;;;;;;;;7.84;72.85;94015.97;4184873;28;19920;-70
2024/03/13 04:45:34;;;;;;;;;;;;;;;7.81;72.65;94021.50;4205218;28;19931;-70
2024/03/13 04:47:35;;;;;;;;;;;;;;;7.69;72.56;94031.41;4208441;28;19926;-74
2024/03/13 04:49:43;;;;;;;;;;;;;;;7.77;73.56;94031.44;4207991;28;20043;-71
2024/03/13 04:51:45;;;;;;;;;;;;;;;7.72;72.78;94030.25;4210126;28;19928;-69
2024/03/13 04:53:46;;;;;;;;;;;;;;;7.78;73.38;94034.84;4203248;28;19927;-70
2024/03/13 04:55:49;;;;;;;;;;;;;;;7.74;73.64;94031.75;4206785;28;20394;-72
2024/03/13 04:57:50;;;;;;;;;;;;;;;7.80;73.26;94041.53;4210883;28;20026;-70
2024/03/13 04:59:52;;;;;;;;;;;;;;;7.88;73.59;94047.75;4207902;28;20023;-69
2024/03/13 05:01:54;;;;;;;;;;;;;;;7.78;72.91;94038.25;4202332;28;19950;-74
2024/03/13 05:03:56;;;;;;;;;;;;;;;7.86;73.23;94034.06;4204930;28;19995;-70
2024/03/13 05:05:58;;;;;;;;;;;;;;;7.86;73.05;94049.72;4211529;28;19930;-72
2024/03/13 05:08:00;;;;;;;;;;;;;;;7.77;72.83;94052.28;4205720;28;19939;-71
2024/03/13 05:10:06;;;;;;;;;;;;;;;7.85;73.02;94050.69;4209792;28;20014;-72
2024/03/13 05:12:08;;;;;;;;;;;;;;;7.80;72.26;94049.34;4168240;28;20280;-71
2024/03/13 05:14:10;;;;;;;;;;;;;;;7.81;72.75;94047.59;4209285;28;20258;-69
2024/03/13 05:16:13;;;;;;;;;;;;;;;7.82;72.46;94043.19;4205691;28;19999;-72
2024/03/13 05:18:15;;;;;;;;;;;;;;;7.85;72.31;94056.72;4200027;28;19924;-70
2024/03/13 05:20:17;;;;;;;;;;;;;;;7.87;72.91;94048.72;4189095;28;19939;-71
2024/03/13 05:22:19;;;;;;;;;;;;;;;7.87;72.55;94056.56;4192490;28;19929;-70
2024/03/13 05:24:21;;;;;;;;;;;;;;;7.88;72.30;94051.19;4210613;28;20003;-70
2024/03/13 05:26:24;;;;;;;;;;;;;;;7.96;72.41;94060.84;4206414;28;20014;-71
2024/03/13 05:28:28;;;;;;;;;;;;;;;7.95;72.38;94065.22;4210179;28;19936;-70
2024/03/13 05:30:30;;;;;;;;;;;;;;;7.88;71.55;94060.81;4210289;28;20343;-71
2024/03/13 05:32:32;;;;;;;;;;;;;;;7.70;71.32;94059.13;4203486;28;19920;-71
2024/03/13 05:34:34;;;;;;;;;;;;;;;7.66;72.14;94068.22;4192618;28;19932;-73
2024/03/13 05:36:38;;;;;;;;;;;;;;;7.68;72.04;94068.03;4196381;28;19963;-71
2024/03/13 05:38:40;;;;;;;;;;;;;;;7.57;71.64;94074.34;4187751;28;20318;-70
2024/03/13 05:40:42;;;;;;;;;;;;;;;7.69;71.99;94067.09;4210955;28;19924;-70
2024/03/13 05:42:44;;;;;;;;;;;;;;;7.69;71.34;94073.09;4209950;28;19928;-70
2024/03/13 05:44:45;;;;;;;;;;;;;;;7.65;71.26;94074.41;4198471;28;19927;-71
2024/03/13 05:46:48;;;;;;;;;;;;;;;7.65;71.46;94082.22;4188880;28;19928;-69
2024/03/13 05:48:50;;;;;;;;;;;;;;;7.63;71.07;94078.94;4204015;28;19927;-70
2024/03/13 05:50:52;;;;;;;;;;;;;;;7.62;71.99;94079.94;4198600;28;19962;-71
2024/03/13 05:52:53;;;;;;;;;;;;;;;7.69;71.40;94091.38;4189193;28;20506;-69
2024/03/13 05:54:55;;;;;;;;;;;;;;;7.65;71.62;94082.22;4210283;28;19920;-72
2024/03/13 05:56:58;;;;;;;;;;;;;;;7.71;71.54;94081.59;4210269;28;19919;-71
2024/03/13 05:58:59;;;;;;;;;;;;;;;7.85;71.58;94076.75;4209529;28;19924;-72
2024/03/13 06:01:01;;;;;;;;;;;;;;;7.87;71.44;94088.69;4196096;28;19927;-73
2024/03/13 06:03:03;;;;;;;;;;;;;;;7.98;70.76;94087.59;4219219;28;20438;-74
2024/03/13 06:05:11;;;;;;;;;;;;;;;8.07;70.69;94084.00;4209102;28;19923;-70
2024/03/13 06:07:13;;;;;;;;;;;;;;;8.15;70.81;94096.25;4209753;28;19942;-73
2024/03/13 06:09:16;;;;;;;;;;;;;;;8.05;70.22;94092.97;4208934;28;19923;-73
2024/03/13 06:11:18;;;;;;;;;;;;;;;8.04;69.67;94096.53;4201866;28;19931;-71
2024/03/13 06:13:20;;;;;;;;;;;;;;;8.13;69.44;94087.75;4214069;28;19920;-72
2024/03/13 06:15:22;;;;;;;;;;;;;;;8.19;70.19;94101.00;4206906;28;19926;-71
2024/03/13 06:17:24;;;;;;;;;;;;;;;8.24;69.26;94095.31;4188272;28;20007;-72
2024/03/13 06:19:29;;;;;;;;;;;;;;;8.26;68.70;94098.59;4190747;28;20466;-71
2024/03/13 06:21:32;;;;;;;;;;;;;;;8.28;68.47;94091.41;4209941;28;20388;-71
2024/03/13 06:23:36;;;;;;;;;;;;;;;8.19;67.91;94098.41;4209644;28;19935;-72
2024/03/13 06:25:41;;;;;;;;;;;;;;;8.23;68.41;94095.47;4204915;28;19926;-69
2024/03/13 06:27:43;;;;;;;;;;;;;;;8.29;67.53;94100.06;4206746;28;19932;-72
2024/03/13 06:29:58;;;;;;;;;;;;;;;8.34;66.96;94098.56;4211366;28;20414;-72
2024/03/13 06:32:03;;;;;;;;;;;;;;;8.45;66.71;94102.69;4205835;28;19921;-70
2024/03/13 06:34:04;;;;;;;;;;;;;;;8.43;66.38;94099.44;4208731;28;19924;-72
2024/03/13 06:36:06;;;;;;;;;;;;;;;8.37;65.75;94110.50;4202581;28;19939;-73
2024/03/13 06:38:08;;;;;;;;;;;;;;;8.40;66.51;94107.56;4206131;28;19928;-71
2024/03/13 06:40:10;;;;;;;;;;;;;;;8.44;66.70;94101.09;4201522;28;20020;-71
2024/03/13 06:42:12;;;;;;;;;;;;;;;8.44;66.75;94101.09;4208729;28;20181;-70
2024/03/13 06:44:14;;;;;;;;;;;;;;;8.48;65.90;94106.81;4193942;28;19928;-72
2024/03/13 06:46:15;;;;;;;;;;;;;;;8.46;66.02;94109.56;4214858;28;20382;-73
2024/03/13 06:48:17;;;;;;;;;;;;;;;8.56;65.82;94106.81;4199032;28;19928;-72
2024/03/13 06:50:19;;;;;;;;;;;;;;;8.58;65.34;94099.63;4207737;28;20007;-71
2024/03/13 06:52:21;;;;;;;;;;;;;;;8.58;65.75;94108.28;4203033;28;20274;-70
2024/03/13 06:54:23;;;;;;;;;;;;;;;8.65;64.57;94110.25;4204852;28;19942;-70
2024/03/13 06:56:25;;;;;;;;;;;;;;;8.45;64.35;94112.34;4205966;28;19927;-72
2024/03/13 06:58:29;;;;;;;;;;;;;;;8.42;65.10;94104.84;4201219;28;19920;-71
2024/03/13 07:00:32;;;;;;;;;;;;;;;8.42;64.68;94105.66;4198870;28;19940;-69
2024/03/13 07:02:35;;;;;;;;;;;;;;;8.45;64.74;94114.94;4201001;28;20276;-71
2024/03/13 07:04:37;;;;;;;;;;;;;;;8.48;65.12;94109.44;4205752;28;19928;-73
2024/03/13 07:06:41;;;;;;;;;;;;;;;8.51;65.10;94114.31;4206134;28;19970;-73
2024/03/13 07:08:43;;;;;;;;;;;;;;;8.68;64.81;94129.03;4209331;28;19927;-71
2024/03/13 07:10:46;;;;;;;;;;;;;;;8.71;63.54;94117.44;4191769;28;19924;-71
2024/03/13 07:12:48;;;;;;;;;;;;;;;8.66;64.02;94124.94;4209708;28;19966;-71
2024/03/13 07:14:50;;;;;;;;;;;;;;;8.50;64.16;94123.13;4178784;28;20427;-71
2024/03/13 07:16:52;;;;;;;;;;;;;;;8.48;64.08;94125.91;4203452;28;19934;-70
2024/03/13 07:18:58;;;;;;;;;;;;;;;8.51;64.16;94132.59;4198519;28;19952;-71
2024/03/13 07:21:02;;;;;;;;;;;;;;;8.42;64.53;94136.97;4203378;28;19924;-74
2024/03/13 07:23:03;;;;;;;;;;;;;;;8.18;64.76;94137.69;4209222;28;20014;-69
2024/03/13 07:25:12;;;;;;;;;;;;;;;8.26;64.12;94132.50;4204593;28;19927;-71
2024/03/13 07:27:15;;;;;;;;;;;;;;;8.38;64.35;94127.78;4210891;28;19920;-72
2024/03/13 07:29:17;;;;;;;;;;;;;;;8.46;63.84;94135.69;4209679;28;19973;-70
2024/03/13 07:31:20;;;;;;;;;;;;;;;8.46;63.65;94130.47;4191006;28;19924;-72
2024/03/13 07:33:22;;;;;;;;;;;;;;;8.61;63.99;94138.47;4186495;28;19975;-71
2024/03/13 07:35:24;;;;;;;;;;;;;;;8.73;63.94;94133.75;4204224;28;19977;-71
2024/03/13 07:37:26;;;;;;;;;;;;;;;8.50;63.50;94134.38;4205128;28;20289;-70
2024/03/13 07:39:30;;;;;;;;;;;;;;;8.53;63.95;94139.28;4205515;28;19989;-71
2024/03/13 07:41:33;;;;;;;;;;;;;;;8.67;63.54;94139.63;4206706;28;19928;-71
2024/03/13 07:43:35;;;;;;;;;;;;;;;8.62;63.54;94142.72;4188586;28;20086;-71
2024/03/13 07:45:37;;;;;;;;;;;;;;;8.52;63.63;94139.44;4205935;28;20018;-72
2024/03/13 07:47:39;;;;;;;;;;;;;;;8.52;63.80;94137.66;4208192;28;19931;-71
2024/03/13 07:49:43;;;;;;;;;;;;;;;8.52;63.23;94137.66;4195794;28;19973;-71
2024/03/13 07:51:45;;;;;;;;;;;;;;;8.59;62.27;94132.59;4210929;28;19924;-72
2024/03/13 07:53:48;;;;;;;;;;;;;;;8.68;62.75;94143.88;4199862;28;19930;-70
2024/03/13 07:55:50;;;;;;;;;;;;;;;8.78;62.27;94126.28;4210681;28;19927;-70
2024/03/13 07:57:52;;;;;;;;;;;;;;;8.79;61.75;94136.53;4211011;28;20035;-71
2024/03/13 07:59:54;;;;;;;;;;;;;;;8.73;62.66;94131.16;4207302;28;19920;-71
2024/03/13 08:01:55;;;;;;;;;;;;;;;8.78;62.16;94137.53;4206347;28;19932;-71
2024/03/13 08:03:57;;;;;;;;;;;;;;;8.64;62.72;94132.94;4209595;28;19943;-72
2024/03/13 08:06:00;;;;;;;;;;;;;;;8.77;61.79;94132.44;4208569;28;19936;-73
2024/03/13 08:08:21;;;;;;;;;;;;;;;8.70;62.14;94134.09;4210523;28;20034;-69
2024/03/13 08:10:40;;;;;;;;;;;;;;;8.75;62.52;94137.84;4209479;28;19965;-72
2024/03/13 08:12:59;;;;;;;;;;;;;;;8.53;63.03;94128.81;4209841;28;20463;-71
2024/03/13 08:15:19;;;;;;;;;;;;;;;8.68;62.49;94136.03;4212175;28;20006;-71
2024/03/13 08:17:38;;;;;;;;;;;;;;;8.70;62.47;94126.25;4201454;28;19919;-71
2024/03/13 08:19:57;;;;;;;;;;;;;;;8.66;61.92;94128.38;4195739;28;20087;-71
2024/03/13 08:22:16;;;;;;;;;;;;;;;8.69;62.14;94132.44;4207801;28;20258;-72
2024/03/13 08:24:35;;;;;;;;;;;;;;;8.67;61.98;94140.47;4205680;28;19918;-71
2024/03/13 08:26:54;;;;;;;;;;;;;;;8.57;62.16;94158.06;4211264;28;20621;-73
2024/03/13 08:29:15;;;;;;;;;;;;;;;8.52;62.10;94142.88;4203665;28;20397;-72
2024/03/13 08:31:34;;;;;;;;;;;;;;;8.54;62.47;94138.31;4202072;28;19919;-71
2024/03/13 08:33:57;;;;;;;;;;;;;;;8.58;62.57;94136.19;4215940;28;19919;-72
2024/03/13 08:36:18;;;;;;;;;;;;;;;8.62;62.55;94134.88;4208837;28;19929;-71
2024/03/13 08:38:37;;;;;;;;;;;;;;;8.75;61.95;94140.44;4205240;28;19947;-72
2024/03/13 08:40:56;;;;;;;;;;;;;;;8.86;61.63;94141.91;4215625;28;20375;-71
2024/03/13 08:43:19;;;;;;;;;;;;;;;8.90;62.07;94139.81;4207829;28;19985;-71
2024/03/13 08:45:38;;;;;;;;;;;;;;;9.01;61.32;94142.94;4206472;28;19922;-71
2024/03/13 08:47:59;;;;;;;;;;;;;;;9.16;61.44;94150.09;4212258;28;20149;-72
2024/03/13 08:50:18;;;;;;;;;;;;;;;9.08;60.47;94148.31;4208972;28;20349;-72
2024/03/13 08:52:37;;;;;;;;;;;;;;;9.07;60.64;94143.25;4207679;28;20037;-73
2024/03/13 08:54:55;;;;;;;;;;;;;;;9.10;60.64;94141.13;4213358;28;19978;-71
2024/03/13 08:57:15;;;;;;;;;;;;;;;9.13;60.68;94146.03;4216693;28;19923;-73
2024/03/13 08:59:34;;;;;;;;;;;;;;;9.26;60.40;94157.78;4202601;28;19982;-71
2024/03/13 09:01:54;;;;;;;;;;;;;;;9.20;60.42;94154.03;4209293;28;20057;-73
2024/03/13 09:04:13;;;;;;;;;;;;;;;9.16;61.30;94155.31;4201749;28;19981;-72
2024/03/13 09:06:33;;;;;;;;;;;;;;;9.19;61.23;94150.59;4203815;28;20344;-72
2024/03/13 09:08:35;;;;;;;;;;;;;;;9.22;60.91;94155.50;4207159;28;19920;-73
2024/03/13 09:10:48;;;;;;;;;;;;;;;9.16;60.49;94157.94;4202193;28;20634;-70
2024/03/13 09:12:53;;;;;;;;;;;;;;;9.08;60.12;94161.38;4190925;28;19921;-71
2024/03/13 09:14:54;;;;;;;;;;;;;;;9.06;60.32;94154.69;4208375;28;19919;-72
2024/03/13 09:16:57;;;;;;;;;;;;;;;9.09;60.54;94152.56;4211503;28;19924;-72
2024/03/13 09:18:59;;;;;;;;;;;;;;;9.16;59.93;94166.63;4207950;28;19935;-71
2024/03/13 09:21:01;;;;;;;;;;;;;;;9.25;60.44;94167.44;4202833;28;19927;-71
2024/03/13 09:23:03;;;;;;;;;;;;;;;9.31;60.36;94158.91;4211441;28;20003;-69
2024/03/13 09:25:05;;;;;;;;;;;;;;;9.42;60.03;94155.97;4198486;28;19943;-73
2024/03/13 09:27:07;;;;;;;;;;;;;;;9.55;59.42;94160.72;4208858;28;19928;-71
2024/03/13 09:29:09;;;;;;;;;;;;;;;9.67;59.64;94153.31;4195540;28;19978;-72
2024/03/13 09:31:11;;;;;;;;;;;;;;;9.83;58.33;94152.47;4206867;28;19973;-72
2024/03/13 09:33:13;;;;;;;;;;;;;;;9.84;58.35;94152.28;4188985;28;20125;-72
2024/03/13 09:35:17;;;;;;;;;;;;;;;9.82;58.35;94159.50;4192865;28;19927;-70
2024/03/13 09:37:20;;;;;;;;;;;;;;;9.83;57.99;94153.28;4214031;28;20015;-70
2024/03/13 09:39:22;;;;;;;;;;;;;;;9.86;57.72;94159.97;4206001;28;20011;-70
2024/03/13 09:41:24;;;;;;;;;;;;;;;9.98;57.75;94163.03;4211821;28;19927;-70
2024/03/13 09:43:29;;;;;;;;;;;;;;;10.02;57.49;94166.94;4190534;28;19930;-72
2024/03/13 09:45:30;;;;;;;;;;;;;;;10.18;57.26;94174.75;4191342;28;20041;-71
2024/03/13 09:47:32;;;;;;;;;;;;;;;10.10;56.59;94163.50;4205341;28;20007;-71
2024/03/13 09:49:34;;;;;;;;;;;;;;;10.02;57.31;94156.50;4190774;28;19929;-70
2024/03/13 09:51:36;;;;;;;;;;;;;;;9.98;57.12;94168.28;4207810;28;19920;-71
2024/03/13 09:53:40;;;;;;;;;;;;;;;10.23;57.15;94151.50;4188767;28;19932;-71
2024/03/13 09:55:44;;;;;;;;;;;;;;;10.57;56.29;94154.81;4191292;28;19927;-72
2024/03/13 09:57:49;;;;;;;;;;;;;;;10.78;56.35;94149.78;4210698;28;19963;-72
2024/03/13 09:59:56;;;;;;;;;;;;;;;10.94;55.32;94156.72;4189484;28;20019;-71
2024/03/13 10:01:58;;;;;;;;;;;;;;;11.05;55.54;94158.91;4191655;28;19966;-70
2024/03/13 10:04:02;;;;;;;;;;;;;;;11.14;55.65;94154.44;4191124;28;20023;-71
2024/03/13 10:06:11;;;;;;;;;;;;;;;11.15;54.42;94147.41;4189920;28;19928;-73
2024/03/13 10:08:13;;;;;;;;;;;;;;;10.72;54.93;94149.66;4191106;28;19924;-72
2024/03/13 10:10:23;;;;;;;;;;;;;;;10.23;57.10;94153.31;4191741;28;20459;-71
2024/03/13 10:12:26;;;;;;;;;;;;;;;9.58;60.11;94151.72;4208572;28;19963;-71
2024/03/13 10:14:27;;;;;;;;;;;;;;;9.15;61.79;94157.13;4196849;28;20396;-70
2024/03/13 10:16:29;;;;;;;;;;;;;;;9.32;62.23;94157.13;4194610;28;20371;-73
2024/03/13 10:18:31;;;;;;;;;;;;;;;8.96;64.24;94158.25;4181132;28;19927;-71
2024/03/13 10:20:38;;;;;;;;;;;;;;;8.71;64.85;94152.22;4193057;28;19943;-71
2024/03/13 10:22:40;;;;;;;;;;;;;;;8.74;65.92;94145.84;4187136;28;19928;-74
2024/03/13 10:24:42;;;;;;;;;;;;;;;9.24;63.61;94152.72;4187258;28;20019;-71
2024/03/13 10:26:45;;;;;;;;;;;;;;;9.87;61.33;94137.25;4206952;28;19931;-72
2024/03/13 10:28:47;;;;;;;;;;;;;;;10.12;60.30;94135.38;4207541;28;20309;-71
2024/03/13 10:30:51;;;;;;;;;;;;;;;10.50;59.21;94140.78;4209365;28;20504;-72
2024/03/13 10:32:54;;;;;;;;;;;;;;;10.85;57.98;94121.06;4209096;28;19920;-73
2024/03/13 10:34:56;;;;;;;;;;;;;;;11.11;56.82;94117.28;4204826;28;20031;-71
2024/03/13 10:37:00;;;;;;;;;;;;;;;11.25;56.77;94121.75;4206952;28;19951;-70
2024/03/13 10:39:13;;;;;;;;;;;;;;;11.10;56.53;94121.72;4191189;28;19947;-71
2024/03/13 10:41:17;;;;;;;;;;;;;;;11.05;56.45;94116.16;4189151;28;19935;-72
2024/03/13 10:43:19;;;;;;;;;;;;;;;10.79;57.77;94127.00;4203309;28;20271;-71
2024/03/13 10:45:21;;;;;;;;;;;;;;;10.21;59.89;94129.91;4205741;28;19926;-73
2024/03/13 10:47:23;;;;;;;;;;;;;;;9.75;62.04;94128.94;4212321;28;19959;-72
2024/03/13 10:49:25;;;;;;;;;;;;;;;9.24;65.14;94142.25;4207321;28;20025;-72
2024/03/13 10:51:27;;;;;;;;;;;;;;;9.12;65.83;94136.56;4196088;28;20318;-72
2024/03/13 10:53:29;;;;;;;;;;;;;;;8.92;66.92;94137.84;4187729;28;20053;-70
2024/03/13 10:55:30;;;;;;;;;;;;;;;8.78;66.99;94136.72;4193587;28;19927;-73
2024/03/13 10:57:36;;;;;;;;;;;;;;;8.45;68.85;94136.63;4201985;28;19999;-71
2024/03/13 10:59:41;;;;;;;;;;;;;;;8.50;69.51;94134.38;4185746;28;19924;-73
2024/03/13 11:01:45;;;;;;;;;;;;;;;8.59;69.64;94130.81;4202413;28;20292;-72
2024/03/13 11:03:57;;;;;;;;;;;;;;;8.58;70.10;94137.03;4180807;28;19932;-72
2024/03/13 11:06:00;;;;;;;;;;;;;;;8.33;70.07;94146.53;4198905;28;19920;-72
2024/03/13 11:08:02;;;;;;;;;;;;;;;8.21;70.48;94139.97;4185128;28;19921;-72
2024/03/13 11:10:09;;;;;;;;;;;;;;;8.19;71.44;94136.69;4190278;28;19947;-72
2024/03/13 11:12:21;;;;;;;;;;;;;;;7.92;72.18;94145.59;4205298;28;19920;-74
2024/03/13 11:14:23;;;;;;;;;;;;;;;8.05;72.64;94145.97;4194704;28;20245;-71